createdAt,value
2017-07-19T00:01:41.461Z,6.37
2017-07-19T00:04:10.764Z,4.95
2017-07-19T00:06:40.855Z,7.68
2017-07-19T00:09:10.151Z,6.72
2017-07-19T00:11:39.476Z,5.85
2017-07-19T00:14:08.800Z,10.80
2017-07-19T00:16:38.128Z,7.10
2017-07-19T00:19:07.434Z,5.25
2017-07-19T00:21:36.761Z,6.15
2017-07-19T00:24:06.061Z,6.57
2017-07-19T00:26:35.415Z,5.03
2017-07-19T00:29:04.719Z,6.62
2017-07-19T00:31:34.018Z,5.25
2017-07-19T00:34:03.341Z,5.70
2017-07-19T00:36:32.644Z,5.07
2017-07-19T00:39:01.979Z,5.18
2017-07-19T00:41:31.284Z,5.25
2017-07-19T00:44:00.626Z,4.15
2017-07-19T00:46:29.927Z,4.15
2017-07-19T00:48:59.245Z,4.05
2017-07-19T00:51:28.553Z,3.25
2017-07-19T00:53:57.868Z,4.80
2017-07-19T00:56:27.171Z,6.68
2017-07-19T00:58:56.501Z,4.20
2017-07-19T01:01:25.825Z,4.80
2017-07-19T01:03:55.152Z,4.05
2017-07-19T01:06:24.468Z,4.12
2017-07-19T01:08:53.768Z,4.68
2017-07-19T01:11:23.095Z,3.75
2017-07-19T01:13:52.401Z,5.72
2017-07-19T01:16:21.724Z,5.05
2017-07-19T01:18:51.037Z,3.50
2017-07-19T01:21:20.361Z,3.58
2017-07-19T01:23:49.684Z,3.28
2017-07-19T01:26:19.021Z,3.42
2017-07-19T01:28:48.324Z,4.45
2017-07-19T01:31:18.414Z,3.42
2017-07-19T01:33:47.720Z,4.62
2017-07-19T01:36:17.038Z,3.05
2017-07-19T01:38:47.114Z,4.32
2017-07-19T01:41:16.443Z,3.25
2017-07-19T01:43:45.745Z,3.55
2017-07-19T01:46:15.095Z,3.12
2017-07-19T01:48:44.435Z,3.45
2017-07-19T01:51:13.729Z,3.30
2017-07-19T01:53:43.057Z,2.83
2017-07-19T01:56:12.374Z,2.75
2017-07-19T01:58:42.466Z,3.75
2017-07-19T02:01:11.777Z,4.30
2017-07-19T02:03:41.119Z,3.10
2017-07-19T02:06:10.441Z,4.32
2017-07-19T02:08:39.764Z,3.40
2017-07-19T02:11:09.089Z,3.90
2017-07-19T02:13:40.014Z,4.40
2017-07-19T02:16:09.327Z,3.40
2017-07-19T02:18:38.665Z,3.80
2017-07-19T02:21:08.746Z,3.28
2017-07-19T02:23:38.076Z,2.95
2017-07-19T02:26:07.395Z,3.50
2017-07-19T02:28:36.699Z,3.70
2017-07-19T02:31:06.024Z,5.45
2017-07-19T02:33:35.334Z,5.15
2017-07-19T02:36:04.662Z,3.58
2017-07-19T02:38:33.970Z,4.62
2017-07-19T02:41:04.058Z,3.50
2017-07-19T02:43:33.360Z,3.15
2017-07-19T02:46:02.706Z,2.60
2017-07-19T02:48:32.784Z,3.12
2017-07-19T02:51:02.109Z,2.95
2017-07-19T02:53:31.425Z,4.50
2017-07-19T02:56:00.719Z,5.03
2017-07-19T02:58:30.045Z,3.12
2017-07-19T03:00:59.355Z,4.00
2017-07-19T03:03:28.676Z,3.28
2017-07-19T03:05:57.980Z,3.05
2017-07-19T03:08:27.302Z,3.55
2017-07-19T03:10:56.604Z,4.05
2017-07-19T03:13:25.944Z,3.20
2017-07-19T03:15:55.248Z,4.00
2017-07-19T03:18:24.552Z,3.28
2017-07-19T03:20:53.864Z,4.78
2017-07-19T03:23:23.164Z,3.10
2017-07-19T03:25:52.488Z,3.40
2017-07-19T03:28:21.787Z,3.45
2017-07-19T03:30:51.117Z,4.07
2017-07-19T03:33:20.425Z,4.18
2017-07-19T03:35:49.747Z,3.47
2017-07-19T03:38:19.827Z,3.35
2017-07-19T03:40:49.128Z,4.12
2017-07-19T03:43:18.432Z,3.87
2017-07-19T03:45:47.743Z,4.12
2017-07-19T03:48:17.040Z,5.82
2017-07-19T03:50:46.370Z,4.65
2017-07-19T03:53:16.041Z,4.10
2017-07-19T03:55:45.407Z,3.85
2017-07-19T03:58:14.835Z,5.70
2017-07-19T04:00:44.146Z,6.32
2017-07-19T04:03:13.461Z,4.90
2017-07-19T04:05:42.771Z,5.90
2017-07-19T04:08:12.084Z,7.87
2017-07-19T04:10:42.215Z,7.80
2017-07-19T04:13:12.284Z,5.80
2017-07-19T04:15:41.617Z,5.45
2017-07-19T04:18:10.940Z,6.47
2017-07-19T04:20:40.240Z,6.55
2017-07-19T04:23:09.557Z,5.87
2017-07-19T04:25:38.864Z,6.95
2017-07-19T04:28:08.202Z,8.75
2017-07-19T04:30:37.490Z,5.28
2017-07-19T04:33:06.788Z,6.90
2017-07-19T04:35:36.117Z,5.20
2017-07-19T04:38:05.416Z,6.93
2017-07-19T04:40:34.761Z,9.70
2017-07-19T04:43:04.068Z,7.57
2017-07-19T04:45:33.387Z,8.68
2017-07-19T04:48:02.697Z,8.63
2017-07-19T04:50:32.029Z,6.40
2017-07-19T04:53:01.325Z,7.90
2017-07-19T04:55:30.670Z,5.68
2017-07-19T04:57:59.992Z,8.63
2017-07-19T05:00:29.341Z,4.90
2017-07-19T05:02:58.659Z,7.75
2017-07-19T05:05:27.969Z,4.57
2017-07-19T05:07:57.296Z,5.40
2017-07-19T05:10:26.606Z,5.70
2017-07-19T05:12:55.929Z,11.18
2017-07-19T05:15:25.256Z,6.10
2017-07-19T05:17:54.593Z,14.15
2017-07-19T05:20:23.901Z,5.10
2017-07-19T05:22:53.227Z,7.37
2017-07-19T05:25:22.538Z,7.82
2017-07-19T05:27:51.860Z,5.30
2017-07-19T05:30:21.164Z,9.38
2017-07-19T05:32:50.501Z,4.93
2017-07-19T05:35:19.812Z,5.45
2017-07-19T05:37:49.180Z,4.28
2017-07-19T05:40:18.474Z,11.07
2017-07-19T05:42:47.786Z,6.65
2017-07-19T05:45:17.099Z,6.57
2017-07-19T05:47:46.400Z,6.25
2017-07-19T05:50:15.730Z,5.78
2017-07-19T05:52:45.036Z,6.47
2017-07-19T05:55:15.141Z,11.50
2017-07-19T05:57:44.455Z,6.47
2017-07-19T06:00:13.782Z,6.00
2017-07-19T06:02:43.095Z,7.70
2017-07-19T06:05:12.414Z,7.97
2017-07-19T06:07:41.722Z,6.95
2017-07-19T06:10:11.053Z,7.82
2017-07-19T06:12:40.368Z,6.70
2017-07-19T06:15:10.469Z,9.00
2017-07-19T06:17:39.800Z,5.35
2017-07-19T06:20:09.879Z,7.97
2017-07-19T06:22:39.210Z,6.45
2017-07-19T06:25:08.521Z,12.07
2017-07-19T06:27:38.621Z,9.82
2017-07-19T06:30:07.932Z,8.35
2017-07-19T06:32:38.029Z,6.43
2017-07-19T06:35:07.339Z,9.55
2017-07-19T06:37:36.660Z,6.40
2017-07-19T06:40:06.737Z,10.45
2017-07-19T06:42:36.086Z,10.65
2017-07-19T06:45:05.410Z,11.43
2017-07-19T06:47:34.728Z,14.80
2017-07-19T06:50:04.052Z,6.95
2017-07-19T06:52:33.372Z,7.37
2017-07-19T06:55:02.728Z,5.78
2017-07-19T06:57:32.041Z,8.85
2017-07-19T07:00:01.360Z,6.70
2017-07-19T07:02:30.682Z,4.07
2017-07-19T07:05:00.011Z,3.50
2017-07-19T07:07:29.327Z,3.80
2017-07-19T07:09:58.653Z,5.80
2017-07-19T07:12:27.969Z,9.57
2017-07-19T07:14:57.290Z,5.33
2017-07-19T07:17:26.593Z,5.27
2017-07-19T07:19:56.689Z,5.00
2017-07-19T07:22:26.004Z,8.03
2017-07-19T07:24:55.309Z,6.03
2017-07-19T07:27:24.644Z,4.30
2017-07-19T07:29:53.945Z,4.50
2017-07-19T07:32:23.288Z,3.70
2017-07-19T07:34:52.596Z,9.33
2017-07-19T07:37:21.929Z,4.97
2017-07-19T07:39:52.022Z,5.10
2017-07-19T07:42:21.359Z,5.17
2017-07-19T07:44:51.429Z,9.60
2017-07-19T07:47:20.750Z,11.20
2017-07-19T07:49:50.074Z,9.03
2017-07-19T07:52:20.168Z,9.33
2017-07-19T07:54:49.496Z,3.63
2017-07-19T07:57:18.846Z,4.90
2017-07-19T07:59:48.166Z,4.97
2017-07-19T08:02:17.468Z,3.77
2017-07-19T08:04:46.806Z,6.07
2017-07-19T08:07:16.099Z,9.77
2017-07-19T08:09:46.226Z,4.20
2017-07-19T08:12:15.541Z,3.87
2017-07-19T08:14:44.876Z,5.30
2017-07-19T08:17:14.181Z,6.93
2017-07-19T08:19:43.515Z,4.20
2017-07-19T08:22:12.824Z,4.33
2017-07-19T08:24:42.908Z,4.27
2017-07-19T08:27:12.222Z,3.27
2017-07-19T08:29:41.541Z,4.77
2017-07-19T08:32:10.872Z,5.07
2017-07-19T08:34:40.201Z,3.60
2017-07-19T08:37:09.518Z,5.43
2017-07-19T08:39:38.840Z,5.10
2017-07-19T08:42:08.165Z,6.87
2017-07-19T08:44:38.246Z,6.73
2017-07-19T08:47:07.787Z,6.20
2017-07-19T08:49:37.855Z,3.83
2017-07-19T08:52:07.183Z,5.20
2017-07-19T08:54:36.510Z,5.40
2017-07-19T08:57:06.601Z,5.00
2017-07-19T08:59:35.927Z,5.63
2017-07-19T09:02:05.228Z,4.37
2017-07-19T09:04:34.540Z,4.93
2017-07-19T09:07:03.897Z,4.43
2017-07-19T09:09:33.207Z,4.00
2017-07-19T09:12:02.525Z,8.20
2017-07-19T09:14:31.865Z,4.87
2017-07-19T09:17:01.173Z,5.20
2017-07-19T09:19:30.498Z,4.83
2017-07-19T09:21:59.804Z,5.00
2017-07-19T09:24:29.130Z,5.07
2017-07-19T09:26:58.435Z,4.40
2017-07-19T09:29:27.755Z,6.37
2017-07-19T09:31:57.830Z,6.10
2017-07-19T09:34:27.154Z,8.17
2017-07-19T09:36:56.457Z,7.60
2017-07-19T09:39:25.785Z,4.50
2017-07-19T09:41:55.102Z,4.73
2017-07-19T09:44:24.422Z,6.33
2017-07-19T09:46:53.725Z,4.03
2017-07-19T09:49:23.057Z,5.27
2017-07-19T09:51:52.375Z,5.10
2017-07-19T09:54:22.475Z,4.13
2017-07-19T09:56:51.777Z,5.90
2017-07-19T09:59:21.134Z,6.37
2017-07-19T10:01:50.427Z,5.47
2017-07-19T10:04:19.744Z,4.53
2017-07-19T10:06:49.067Z,6.97
2017-07-19T10:09:18.383Z,6.80
2017-07-19T10:11:47.700Z,6.73
2017-07-19T10:14:17.009Z,12.10
2017-07-19T10:16:47.100Z,6.27
2017-07-19T10:19:16.412Z,5.83
2017-07-19T10:21:45.752Z,6.10
2017-07-19T10:24:15.056Z,4.47
2017-07-19T10:26:44.376Z,4.17
2017-07-19T10:29:13.682Z,6.63
2017-07-19T10:31:43.029Z,5.00
2017-07-19T10:34:12.338Z,6.33
2017-07-19T10:36:41.661Z,5.30
2017-07-19T10:39:10.964Z,10.30
2017-07-19T10:41:40.284Z,5.20
2017-07-19T10:44:09.608Z,5.07
2017-07-19T10:46:38.938Z,4.90
2017-07-19T10:49:08.261Z,5.50
2017-07-19T10:51:37.577Z,5.80
2017-07-19T10:54:06.894Z,4.90
2017-07-19T10:56:36.212Z,5.50
2017-07-19T10:59:06.288Z,5.60
2017-07-19T11:01:35.625Z,8.50
2017-07-19T11:04:04.966Z,5.63
2017-07-19T11:06:34.312Z,5.00
2017-07-19T11:09:03.621Z,5.07
2017-07-19T11:11:33.000Z,6.80
2017-07-19T11:14:02.309Z,4.87
2017-07-19T11:16:31.606Z,5.03
2017-07-19T11:19:01.026Z,6.30
2017-07-19T11:21:30.361Z,8.93
2017-07-19T11:23:59.692Z,5.53
2017-07-19T11:26:29.009Z,5.70
2017-07-19T11:28:58.420Z,4.40
2017-07-19T11:31:27.717Z,5.80
2017-07-19T11:33:57.038Z,11.13
2017-07-19T11:36:26.340Z,6.20
2017-07-19T11:38:55.660Z,5.50
2017-07-19T11:41:25.752Z,4.87
2017-07-19T11:43:55.507Z,5.43
2017-07-19T11:46:24.820Z,6.93
2017-07-19T11:48:54.154Z,9.17
2017-07-19T11:51:23.456Z,5.20
2017-07-19T11:53:52.777Z,6.87
2017-07-19T11:56:22.085Z,9.40
2017-07-19T11:58:51.426Z,6.13
2017-07-19T12:01:20.728Z,5.77
2017-07-19T12:03:50.054Z,4.63
2017-07-19T12:06:19.363Z,5.00
2017-07-19T12:08:48.690Z,7.50
2017-07-19T12:11:17.994Z,6.43
2017-07-19T12:13:47.347Z,6.73
2017-07-19T12:16:16.655Z,5.50
2017-07-19T12:18:45.960Z,11.50
2017-07-19T12:21:15.298Z,5.77
2017-07-19T12:23:44.608Z,4.50
2017-07-19T12:26:14.704Z,6.83
2017-07-19T12:28:44.009Z,6.20
2017-07-19T12:31:13.337Z,6.37
2017-07-19T12:33:43.409Z,6.20
2017-07-19T12:36:12.726Z,7.90
2017-07-19T12:38:42.028Z,5.77
2017-07-19T12:41:11.349Z,5.73
2017-07-19T12:43:40.654Z,5.70
2017-07-19T12:46:09.970Z,8.13
2017-07-19T12:48:39.286Z,6.93
2017-07-19T12:51:09.369Z,11.90
2017-07-19T12:53:39.437Z,6.60
2017-07-19T12:56:08.757Z,8.87
2017-07-19T12:58:38.058Z,5.77
2017-07-19T13:01:07.421Z,5.60
2017-07-19T13:03:36.728Z,12.33
2017-07-19T13:06:06.056Z,8.63
2017-07-19T13:08:35.380Z,6.03
2017-07-19T13:11:04.693Z,6.03
2017-07-19T13:13:34.753Z,6.57
2017-07-19T13:16:04.068Z,9.13
2017-07-19T13:18:33.462Z,7.43
2017-07-19T13:21:02.798Z,7.40
2017-07-19T13:23:32.095Z,6.73
2017-07-19T13:26:01.415Z,7.87
2017-07-19T13:28:30.757Z,6.50
2017-07-19T13:31:00.066Z,6.00
2017-07-19T13:33:29.389Z,6.30
2017-07-19T13:35:58.701Z,6.70
2017-07-19T13:38:28.020Z,6.20
2017-07-19T13:40:57.358Z,5.93
2017-07-19T13:43:26.673Z,5.80
2017-07-19T13:45:55.984Z,5.73
2017-07-19T13:48:25.328Z,5.93
2017-07-19T13:50:54.632Z,5.90
2017-07-19T13:53:23.960Z,7.13
2017-07-19T13:55:54.027Z,5.40
2017-07-19T13:58:23.352Z,5.60
2017-07-19T14:00:52.658Z,6.80
2017-07-19T14:03:21.976Z,9.90
2017-07-19T14:05:52.045Z,8.83
2017-07-19T14:08:21.378Z,12.43
2017-07-19T14:10:50.716Z,12.83
2017-07-19T14:13:20.100Z,10.43
2017-07-19T14:15:49.409Z,5.97
2017-07-19T14:18:18.745Z,8.60
2017-07-19T14:20:48.117Z,6.03
2017-07-19T14:23:17.444Z,5.27
2017-07-19T14:25:46.751Z,5.97
2017-07-19T14:28:16.071Z,7.87
2017-07-19T14:30:45.385Z,6.00
2017-07-19T14:33:14.713Z,10.60
2017-07-19T14:35:44.027Z,6.70
2017-07-19T14:38:13.337Z,8.93
2017-07-19T14:40:42.672Z,7.37
2017-07-19T14:43:11.968Z,9.23
2017-07-19T14:45:41.353Z,7.97
2017-07-19T14:48:10.714Z,6.10
2017-07-19T14:50:40.042Z,6.20
2017-07-19T14:53:09.421Z,5.80
2017-07-19T14:55:38.733Z,8.03
2017-07-19T14:58:08.033Z,6.00
2017-07-19T15:00:38.129Z,9.53
2017-07-19T15:03:07.429Z,5.60
2017-07-19T15:05:36.758Z,7.70
2017-07-19T15:08:06.820Z,5.87
2017-07-19T15:10:36.145Z,5.30
2017-07-19T15:13:09.876Z,5.23
2017-07-19T15:15:45.539Z,9.27
2017-07-19T15:18:22.763Z,5.67
2017-07-19T15:20:58.374Z,9.03
2017-07-19T15:23:28.294Z,8.73
2017-07-19T15:25:57.622Z,7.03
2017-07-19T15:28:26.924Z,5.73
2017-07-19T15:30:56.247Z,7.50
2017-07-19T15:33:25.553Z,7.50
2017-07-19T15:35:54.875Z,8.67
2017-07-19T15:38:24.217Z,6.00
2017-07-19T15:40:53.544Z,8.40
2017-07-19T15:43:22.851Z,6.53
2017-07-19T15:45:52.143Z,7.20
2017-07-19T15:48:21.464Z,11.67
2017-07-19T15:50:50.826Z,9.73
2017-07-19T15:53:20.136Z,5.90
2017-07-19T15:55:52.850Z,8.40
2017-07-19T15:58:37.573Z,10.70
2017-07-19T16:01:13.479Z,10.27
2017-07-19T16:03:58.389Z,8.00
2017-07-19T16:06:35.044Z,6.43
2017-07-19T16:09:14.634Z,6.57
2017-07-19T16:11:48.432Z,7.43
2017-07-19T16:14:23.289Z,6.67
2017-07-19T16:19:37.294Z,7.63
2017-07-19T16:22:11.594Z,11.70
2017-07-19T16:24:45.693Z,6.07
2017-07-19T16:27:27.094Z,7.33
2017-07-19T16:30:01.661Z,8.33
2017-07-19T16:32:30.972Z,10.37
2017-07-19T16:35:00.301Z,8.63
2017-07-19T16:37:29.629Z,12.43
2017-07-19T16:39:58.927Z,8.20
2017-07-19T16:42:28.254Z,11.83
2017-07-19T16:44:57.570Z,6.87
2017-07-19T16:47:27.101Z,9.53
2017-07-19T16:49:56.411Z,6.27
2017-07-19T16:52:25.733Z,9.83
2017-07-19T16:54:55.038Z,11.77
2017-07-19T16:57:24.377Z,9.33
2017-07-19T16:59:53.684Z,6.77
2017-07-19T17:02:22.997Z,12.43
2017-07-19T17:04:52.321Z,10.63
2017-07-19T17:07:21.641Z,13.13
2017-07-19T17:09:50.986Z,12.23
2017-07-19T17:12:20.296Z,12.20
2017-07-19T17:14:49.625Z,7.17
2017-07-19T17:17:18.928Z,11.80
2017-07-19T17:19:48.268Z,8.97
2017-07-19T17:22:18.340Z,11.03
2017-07-19T17:24:47.672Z,7.53
2017-07-19T17:27:18.180Z,10.30
2017-07-19T17:29:47.640Z,8.47
2017-07-19T17:32:17.730Z,6.03
2017-07-19T17:34:47.088Z,10.63
2017-07-19T17:37:16.392Z,6.50
2017-07-19T17:39:45.708Z,9.57
2017-07-19T17:42:15.029Z,9.77
2017-07-19T17:44:44.349Z,10.20
2017-07-19T17:47:14.456Z,11.50
2017-07-19T17:49:43.769Z,10.33
2017-07-19T17:52:13.861Z,6.80
2017-07-19T17:54:43.173Z,7.60
2017-07-19T17:57:12.500Z,6.17
2017-07-19T17:59:41.809Z,7.50
2017-07-19T18:02:11.894Z,6.47
2017-07-19T18:04:41.201Z,8.73
2017-07-19T18:07:10.532Z,11.63
2017-07-19T18:09:39.839Z,6.27
2017-07-19T18:12:09.182Z,11.77
2017-07-19T18:14:38.599Z,7.00
2017-07-19T18:17:07.947Z,5.47
2017-07-19T18:19:37.269Z,10.00
2017-07-19T18:22:06.613Z,11.77
2017-07-19T18:24:35.940Z,9.00
2017-07-19T18:27:06.025Z,10.27
2017-07-19T18:29:35.349Z,5.23
2017-07-19T18:32:04.686Z,8.83
2017-07-19T18:34:34.018Z,9.80
2017-07-19T18:37:03.328Z,12.57
2017-07-19T18:39:32.670Z,9.23
2017-07-19T18:42:02.758Z,8.53
2017-07-19T18:44:32.254Z,6.70
2017-07-19T18:47:01.559Z,7.60
2017-07-19T18:49:30.935Z,6.33
2017-07-19T18:52:00.272Z,5.80
2017-07-19T18:54:29.650Z,6.13
2017-07-19T18:56:58.961Z,7.90
2017-07-19T18:59:28.358Z,6.40
2017-07-19T19:01:57.690Z,6.73
2017-07-19T19:04:27.021Z,9.97
2017-07-19T19:06:56.523Z,6.70
2017-07-19T19:09:25.885Z,7.37
2017-07-19T19:11:55.238Z,9.43
2017-07-19T19:14:24.626Z,10.43
2017-07-19T19:16:54.707Z,6.83
2017-07-19T19:19:24.015Z,8.60
2017-07-19T19:21:53.344Z,9.93
2017-07-19T19:24:22.657Z,8.50
2017-07-19T19:26:51.996Z,7.73
2017-07-19T19:29:21.311Z,6.80
2017-07-19T19:31:51.436Z,8.40
2017-07-19T19:34:21.505Z,8.77
2017-07-19T19:36:50.832Z,7.33
2017-07-19T19:39:20.156Z,7.33
2017-07-19T19:41:49.462Z,8.97
2017-07-19T19:44:19.561Z,6.53
2017-07-19T19:46:48.866Z,9.03
2017-07-19T19:49:18.205Z,9.03
2017-07-19T19:51:47.537Z,9.87
2017-07-19T19:54:16.867Z,7.73
2017-07-19T19:56:46.952Z,8.33
2017-07-19T19:59:16.292Z,8.90
2017-07-19T20:01:46.367Z,11.20
2017-07-19T20:04:15.721Z,8.50
2017-07-19T20:06:45.036Z,13.17
2017-07-19T20:09:14.373Z,29.53
2017-07-19T20:11:43.712Z,10.80
2017-07-19T20:14:13.025Z,9.23
2017-07-19T20:16:43.131Z,12.30
2017-07-19T20:19:12.449Z,8.30
2017-07-19T20:21:42.548Z,16.53
2017-07-19T20:24:11.850Z,10.43
2017-07-19T20:26:41.208Z,14.27
2017-07-19T20:29:10.526Z,10.97
2017-07-19T20:31:39.846Z,10.40
2017-07-19T20:34:09.152Z,9.90
2017-07-19T20:36:38.509Z,10.95
2017-07-19T20:39:07.838Z,11.17
2017-07-19T20:41:37.184Z,16.37
2017-07-19T20:44:06.533Z,13.20
2017-07-19T20:46:35.856Z,10.20
2017-07-19T20:49:05.194Z,14.05
2017-07-19T20:51:34.765Z,10.45
2017-07-19T20:54:04.118Z,16.25
2017-07-19T20:56:33.461Z,13.90
2017-07-19T20:59:02.796Z,19.23
2017-07-19T21:01:32.881Z,10.15
2017-07-19T21:04:02.221Z,15.15
2017-07-19T21:06:31.561Z,21.75
2017-07-19T21:09:01.237Z,11.45
2017-07-19T21:11:30.783Z,11.45
2017-07-19T21:14:00.161Z,11.12
2017-07-19T21:16:29.516Z,13.30
2017-07-19T21:18:58.876Z,13.32
2017-07-19T21:21:28.269Z,11.55
2017-07-19T21:23:57.618Z,17.67
2017-07-19T21:26:27.755Z,13.52
2017-07-19T21:28:57.106Z,12.15
2017-07-19T21:31:26.466Z,13.13
2017-07-19T21:33:55.823Z,13.25
2017-07-19T21:36:25.206Z,9.35
2017-07-19T21:38:54.554Z,9.20
2017-07-19T21:41:24.685Z,10.07
2017-07-19T21:43:54.038Z,11.23
2017-07-19T21:46:23.417Z,9.02
2017-07-19T21:48:52.763Z,7.80
2017-07-19T21:51:22.110Z,12.07
2017-07-19T21:53:51.479Z,9.63
2017-07-19T21:56:21.591Z,14.23
2017-07-19T21:58:51.721Z,9.50
2017-07-19T22:01:21.822Z,10.32
2017-07-19T22:03:51.194Z,11.63
2017-07-19T22:06:20.554Z,14.57
2017-07-19T22:08:49.937Z,9.52
2017-07-19T22:11:19.277Z,9.77
2017-07-19T22:13:48.648Z,11.38
2017-07-19T22:16:17.999Z,13.10
2017-07-19T22:18:47.359Z,16.15
2017-07-19T22:21:16.702Z,16.35
2017-07-19T22:23:46.077Z,12.45
2017-07-19T22:26:15.424Z,8.60
2017-07-19T22:28:44.788Z,16.42
2017-07-19T22:31:14.146Z,14.57
2017-07-19T22:33:43.519Z,10.00
2017-07-19T22:36:12.903Z,11.73
2017-07-19T22:38:42.243Z,9.55
2017-07-19T22:41:11.605Z,7.05
2017-07-19T22:43:40.956Z,10.30
2017-07-19T22:46:10.328Z,8.20
2017-07-19T22:48:39.674Z,14.87
2017-07-19T22:51:09.030Z,10.52
2017-07-19T22:53:38.406Z,10.85
2017-07-19T22:56:07.763Z,10.75
2017-07-19T22:58:37.200Z,10.77
2017-07-19T23:01:06.615Z,12.48
2017-07-19T23:03:35.963Z,14.77
2017-07-19T23:06:05.310Z,7.95
2017-07-19T23:08:34.671Z,13.07
2017-07-19T23:11:04.026Z,10.70
2017-07-19T23:13:33.379Z,11.07
2017-07-19T23:16:02.742Z,9.13
2017-07-19T23:18:32.102Z,17.50
2017-07-19T23:21:01.455Z,15.63
2017-07-19T23:23:30.820Z,7.68
2017-07-19T23:26:00.204Z,11.75
2017-07-19T23:28:29.586Z,8.55
2017-07-19T23:30:58.949Z,9.50
2017-07-19T23:33:28.327Z,16.00
2017-07-19T23:35:57.706Z,12.25
2017-07-19T23:38:27.058Z,12.13
2017-07-19T23:40:56.469Z,13.35
2017-07-19T23:43:26.096Z,7.82
2017-07-19T23:45:55.451Z,10.10
2017-07-19T23:48:25.567Z,11.12
2017-07-19T23:50:54.946Z,14.52
2017-07-19T23:53:24.300Z,15.80
2017-07-19T23:55:53.709Z,13.48
2017-07-19T23:58:23.066Z,16.37
